createdAt,value
2022-12-28T00:14:45.994Z,49.27
2022-12-28T00:29:46.552Z,56.52
2022-12-28T00:44:47.690Z,64.18
2022-12-28T00:59:48.340Z,71.73
2022-12-28T01:14:49.423Z,79.58
2022-12-28T01:29:50.155Z,83.69
2022-12-28T01:44:51.683Z,86.91
2022-12-28T01:59:52.313Z,92.98
2022-12-28T02:14:53.909Z,95.41
2022-12-28T02:29:54.932Z,95.51
2022-12-28T02:44:55.578Z,95.46
2022-12-28T02:59:57.701Z,94.78
2022-12-28T03:14:58.300Z,95.50
2022-12-28T03:29:58.970Z,96.64
2022-12-28T03:44:59.546Z,97.58
2022-12-28T04:00:00.752Z,98.51
2022-12-28T04:15:02.311Z,99.65
2022-12-28T04:30:03.011Z,99.99
2022-12-28T04:45:04.604Z,99.99
2022-12-28T05:00:06.177Z,99.99
2022-12-28T05:15:06.310Z,99.99
2022-12-28T05:30:06.926Z,99.99
2022-12-28T05:45:07.533Z,99.99
2022-12-28T06:00:08.170Z,99.99
2022-12-28T06:15:08.771Z,99.99
2022-12-28T06:30:09.393Z,99.99
2022-12-28T06:45:10.005Z,99.99
2022-12-28T07:00:10.634Z,99.99
2022-12-28T07:15:11.260Z,97.75
2022-12-28T07:30:11.893Z,93.91
2022-12-28T07:45:12.522Z,87.70
2022-12-28T08:00:14.158Z,85.94
2022-12-28T08:15:15.227Z,82.65
2022-12-28T08:30:15.358Z,77.26
2022-12-28T08:45:15.965Z,80.64
2022-12-28T09:00:17.612Z,80.08
2022-12-28T09:15:18.335Z,70.47
2022-12-28T09:30:18.938Z,76.64
2022-12-28T09:45:20.028Z,91.24
2022-12-28T10:00:21.173Z,96.88
2022-12-28T10:15:21.407Z,98.69
2022-12-28T10:30:22.435Z,90.95
2022-12-28T10:45:24.737Z,92.35
2022-12-28T11:00:25.024Z,93.38
2022-12-28T11:15:26.968Z,96.53
2022-12-28T11:30:27.373Z,98.20
2022-12-28T11:45:28.018Z,99.90
2022-12-28T12:00:28.569Z,99.99
2022-12-28T12:15:29.227Z,99.99
2022-12-28T12:30:32.042Z,99.99
2022-12-28T12:45:32.380Z,99.99
2022-12-28T13:00:33.002Z,99.99
2022-12-28T13:15:33.626Z,99.99
2022-12-28T13:30:34.271Z,99.99
2022-12-28T13:45:35.358Z,99.99
2022-12-28T14:00:35.229Z,99.99
2022-12-28T14:15:41.059Z,99.99
2022-12-28T14:30:42.139Z,99.99
2022-12-28T14:46:06.852Z,99.99
2022-12-28T15:00:49.031Z,99.99
2022-12-28T15:15:49.710Z,99.99
2022-12-28T15:30:50.324Z,99.99
2022-12-28T15:45:50.922Z,99.99
2022-12-28T16:00:51.740Z,99.91
2022-12-28T16:15:53.645Z,97.03
2022-12-28T16:30:53.771Z,96.42
2022-12-28T16:45:54.905Z,97.86
2022-12-28T17:00:56.155Z,99.09
2022-12-28T17:15:56.581Z,99.99
2022-12-28T17:30:57.240Z,91.89
2022-12-28T17:45:58.855Z,79.58
2022-12-28T18:00:59.726Z,87.40
2022-12-28T18:16:00.128Z,92.30
2022-12-28T18:31:02.475Z,94.98
2022-12-28T18:46:03.339Z,99.99
2022-12-28T19:01:04.525Z,96.62
2022-12-28T19:16:04.949Z,89.15
2022-12-28T19:31:05.610Z,74.88
2022-12-28T19:46:06.254Z,66.05
2022-12-28T20:01:07.348Z,54.33
2022-12-28T20:16:08.525Z,47.42
2022-12-28T20:31:09.121Z,44.14
2022-12-28T20:46:09.785Z,48.37
2022-12-28T21:01:10.447Z,53.42
2022-12-28T21:16:11.567Z,55.49
2022-12-28T21:31:12.903Z,62.29
2022-12-28T21:46:15.061Z,69.00
2022-12-28T22:01:15.556Z,77.76
2022-12-28T22:16:17.251Z,83.19
2022-12-28T22:31:17.560Z,85.57
2022-12-28T22:46:18.043Z,89.13
2022-12-28T23:01:18.857Z,77.90
2022-12-28T23:16:19.832Z,68.83
2022-12-28T23:31:21.069Z,65.95
2022-12-28T23:46:22.578Z,66.77
